createdAt,value
2018-08-25T00:00:52.064Z,122.43
2018-08-25T00:03:19.289Z,136.37
2018-08-25T00:05:46.441Z,138.57
2018-08-25T00:08:13.585Z,127.60
2018-08-25T00:10:40.801Z,132.30
2018-08-25T00:13:08.081Z,121.97
2018-08-25T00:15:35.299Z,128.47
2018-08-25T00:18:02.619Z,135.77
2018-08-25T00:20:29.817Z,138.43
2018-08-25T00:22:57.017Z,138.90
2018-08-25T00:25:24.226Z,120.37
2018-08-25T00:27:51.421Z,122.40
2018-08-25T00:30:24.370Z,128.03
2018-08-25T00:32:51.531Z,132.87
2018-08-25T00:35:18.681Z,118.07
2018-08-25T00:37:45.902Z,120.40
2018-08-25T00:40:13.241Z,130.73
2018-08-25T00:42:40.457Z,135.70
2018-08-25T00:45:07.629Z,121.23
2018-08-25T00:47:34.808Z,133.53
2018-08-25T00:50:01.983Z,126.83
2018-08-25T00:52:29.157Z,118.73
2018-08-25T00:54:56.308Z,117.03
2018-08-25T00:57:23.716Z,124.87
2018-08-25T00:59:50.833Z,117.03
2018-08-25T01:02:18.026Z,127.03
2018-08-25T01:04:45.150Z,125.43
2018-08-25T01:07:12.345Z,118.63
2018-08-25T01:09:39.521Z,128.47
2018-08-25T01:12:06.749Z,121.93
2018-08-25T01:14:33.936Z,117.07
2018-08-25T01:17:01.441Z,117.47
2018-08-25T01:19:28.661Z,127.30
2018-08-25T01:21:55.849Z,116.13
2018-08-25T01:24:23.005Z,113.00
2018-08-25T01:26:50.154Z,126.20
2018-08-25T01:29:17.289Z,121.37
2018-08-25T01:31:44.426Z,112.73
2018-08-25T01:34:11.661Z,123.97
2018-08-25T01:36:38.788Z,117.03
2018-08-25T01:39:07.453Z,111.73
2018-08-25T01:41:34.722Z,124.23
2018-08-25T01:44:01.881Z,114.33
2018-08-25T01:46:29.022Z,115.73
2018-08-25T01:48:56.178Z,111.93
2018-08-25T01:51:23.309Z,121.27
2018-08-25T01:53:50.515Z,117.37
2018-08-25T01:56:17.706Z,111.73
2018-08-25T01:58:44.884Z,110.47
2018-08-25T02:01:12.024Z,112.07
2018-08-25T02:03:39.187Z,112.30
2018-08-25T02:06:06.351Z,120.30
2018-08-25T02:08:33.641Z,113.43
2018-08-25T02:11:00.809Z,126.10
2018-08-25T02:13:27.961Z,112.30
2018-08-25T02:15:55.142Z,113.93
2018-08-25T02:18:22.322Z,124.57
2018-08-25T02:20:49.575Z,114.63
2018-08-25T02:23:16.756Z,115.07
2018-08-25T02:25:43.912Z,115.07
2018-08-25T02:28:11.124Z,121.47
2018-08-25T02:30:38.266Z,116.47
2018-08-25T02:33:05.458Z,114.40
2018-08-25T02:35:32.602Z,125.07
2018-08-25T02:37:59.869Z,116.33
2018-08-25T02:40:27.094Z,112.23
2018-08-25T02:42:54.326Z,116.93
2018-08-25T02:45:23.117Z,114.70
2018-08-25T02:47:51.142Z,113.57
2018-08-25T02:50:18.330Z,122.17
2018-08-25T02:52:45.507Z,123.33
2018-08-25T02:55:12.651Z,119.37
2018-08-25T02:57:39.832Z,110.17
2018-08-25T03:00:06.998Z,112.97
2018-08-25T03:02:34.141Z,120.43
2018-08-25T03:05:01.294Z,114.10
2018-08-25T03:07:28.442Z,112.13
2018-08-25T03:09:55.598Z,120.43
2018-08-25T03:12:22.771Z,116.73
2018-08-25T03:14:49.967Z,110.93
2018-08-25T03:17:17.099Z,121.47
2018-08-25T03:19:44.286Z,110.53
2018-08-25T03:22:11.435Z,117.87
2018-08-25T03:24:38.642Z,115.97
2018-08-25T03:27:05.899Z,121.87
2018-08-25T03:29:33.040Z,115.03
2018-08-25T03:32:00.223Z,115.03
2018-08-25T03:34:27.407Z,129.07
2018-08-25T03:36:54.554Z,116.57
2018-08-25T03:39:21.730Z,121.87
2018-08-25T03:41:48.869Z,111.70
2018-08-25T03:44:16.033Z,116.67
2018-08-25T03:46:43.221Z,114.33
2018-08-25T03:49:10.398Z,111.43
2018-08-25T03:51:37.589Z,116.40
2018-08-25T03:54:04.751Z,123.00
2018-08-25T03:56:31.910Z,125.97
2018-08-25T03:58:59.082Z,117.23
2018-08-25T04:01:26.233Z,117.70
2018-08-25T04:03:53.434Z,122.00
2018-08-25T04:06:20.790Z,117.97
2018-08-25T04:08:47.926Z,129.57
2018-08-25T04:11:15.093Z,115.67
2018-08-25T04:13:42.281Z,113.60
2018-08-25T04:16:09.429Z,120.97
2018-08-25T04:18:36.600Z,115.87
2018-08-25T04:21:04.004Z,114.03
2018-08-25T04:23:31.178Z,127.57
2018-08-25T04:25:58.329Z,129.20
2018-08-25T04:28:25.483Z,116.37
2018-08-25T04:30:52.648Z,130.03
2018-08-25T04:33:19.851Z,124.37
2018-08-25T04:35:46.999Z,123.77
2018-08-25T04:38:14.146Z,113.77
2018-08-25T04:40:41.287Z,118.70
2018-08-25T04:43:08.447Z,120.47
2018-08-25T04:45:35.583Z,112.93
2018-08-25T04:48:02.774Z,118.50
2018-08-25T04:50:29.986Z,115.80
2018-08-25T04:52:57.166Z,115.13
2018-08-25T04:55:24.342Z,128.10
2018-08-25T04:57:51.503Z,119.17
2018-08-25T05:00:18.643Z,122.43
2018-08-25T05:02:45.807Z,126.33
2018-08-25T05:05:12.966Z,124.93
2018-08-25T05:07:40.227Z,115.17
2018-08-25T05:10:07.415Z,120.33
2018-08-25T05:12:34.586Z,115.40
2018-08-25T05:15:01.742Z,126.80
2018-08-25T05:17:28.976Z,128.23
2018-08-25T05:19:56.218Z,127.53
2018-08-25T05:22:23.378Z,119.93
2018-08-25T05:24:50.558Z,127.23
2018-08-25T05:27:17.701Z,115.53
2018-08-25T05:29:44.860Z,128.67
2018-08-25T05:32:12.042Z,121.40
2018-08-25T05:34:39.181Z,117.93
2018-08-25T05:37:06.366Z,115.80
2018-08-25T05:39:33.516Z,126.03
2018-08-25T05:42:00.814Z,129.53
2018-08-25T05:44:28.069Z,123.93
2018-08-25T05:46:55.228Z,126.20
2018-08-25T05:49:22.447Z,124.53
2018-08-25T05:51:49.682Z,133.33
2018-08-25T05:54:16.837Z,123.90
2018-08-25T05:56:44.025Z,125.87
2018-08-25T05:59:11.187Z,140.23
2018-08-25T06:01:38.354Z,122.03
2018-08-25T06:04:05.901Z,125.10
2018-08-25T06:06:33.054Z,128.17
2018-08-25T06:09:00.234Z,128.03
2018-08-25T06:11:27.419Z,126.53
2018-08-25T06:13:54.606Z,132.10
2018-08-25T06:16:21.751Z,128.03
2018-08-25T06:18:48.961Z,128.53
2018-08-25T06:21:16.119Z,134.43
2018-08-25T06:23:43.261Z,125.87
2018-08-25T06:26:10.414Z,130.37
2018-08-25T06:28:37.566Z,142.30
2018-08-25T06:31:04.889Z,141.63
2018-08-25T06:33:32.058Z,146.10
2018-08-25T06:35:59.202Z,131.23
2018-08-25T06:38:26.366Z,139.17
2018-08-25T06:40:53.522Z,136.13
2018-08-25T06:43:21.502Z,134.13
2018-08-25T06:45:54.130Z,133.17
2018-08-25T06:48:21.302Z,134.30
2018-08-25T06:50:48.433Z,133.33
2018-08-25T06:53:15.618Z,133.20
2018-08-25T06:55:42.788Z,134.10
2018-08-25T06:58:10.103Z,154.00
2018-08-25T07:00:37.279Z,147.70
2018-08-25T07:03:04.650Z,149.20
2018-08-25T07:05:31.862Z,137.83
2018-08-25T07:07:59.034Z,132.23
2018-08-25T07:10:26.193Z,131.17
2018-08-25T07:12:53.413Z,129.47
2018-08-25T07:15:20.598Z,130.63
2018-08-25T07:17:47.754Z,133.03
2018-08-25T07:20:14.918Z,135.60
2018-08-25T07:22:42.129Z,128.57
2018-08-25T07:25:09.282Z,135.03
2018-08-25T07:27:36.413Z,133.13
2018-08-25T07:30:03.667Z,144.63
2018-08-25T07:32:30.811Z,146.00
2018-08-25T07:34:58.006Z,134.03
2018-08-25T07:37:25.144Z,134.60
2018-08-25T07:39:52.298Z,133.80
2018-08-25T07:42:19.482Z,134.67
2018-08-25T07:44:46.663Z,131.03
2018-08-25T07:47:13.821Z,136.40
2018-08-25T07:49:40.983Z,133.57
2018-08-25T07:52:08.111Z,129.63
2018-08-25T07:54:35.299Z,147.23
2018-08-25T07:57:02.461Z,145.37
2018-08-25T07:59:29.630Z,145.63
2018-08-25T08:01:56.810Z,133.73
2018-08-25T08:04:23.952Z,130.30
2018-08-25T08:06:51.163Z,129.50
2018-08-25T08:09:18.293Z,124.23
2018-08-25T08:11:45.465Z,141.93
2018-08-25T08:14:12.678Z,127.47
2018-08-25T08:16:39.875Z,125.83
2018-08-25T08:19:07.023Z,136.73
2018-08-25T08:21:35.150Z,131.97
2018-08-25T08:24:02.310Z,126.03
2018-08-25T08:26:30.195Z,125.67
2018-08-25T08:28:57.415Z,123.17
2018-08-25T08:31:24.582Z,126.03
2018-08-25T08:33:51.732Z,125.10
2018-08-25T08:36:18.962Z,136.23
2018-08-25T08:38:46.182Z,139.27
2018-08-25T08:41:13.378Z,127.23
2018-08-25T08:43:40.542Z,136.73
2018-08-25T08:46:07.750Z,131.30
2018-08-25T08:48:34.931Z,131.43
2018-08-25T08:51:02.147Z,137.73
2018-08-25T08:53:29.294Z,148.87
2018-08-25T08:55:56.457Z,132.23
2018-08-25T08:58:23.712Z,159.30
2018-08-25T09:00:50.905Z,149.80
2018-08-25T09:03:18.173Z,147.53
2018-08-25T09:05:45.321Z,143.40
2018-08-25T09:08:12.478Z,147.17
2018-08-25T09:10:39.717Z,145.33
2018-08-25T09:13:06.876Z,138.67
2018-08-25T09:15:34.051Z,151.33
2018-08-25T09:18:01.458Z,168.07
2018-08-25T09:20:28.598Z,148.50
2018-08-25T09:22:55.774Z,147.73
2018-08-25T09:25:22.913Z,173.90
2018-08-25T09:27:50.066Z,156.43
2018-08-25T09:30:17.227Z,156.50
2018-08-25T09:32:44.385Z,148.60
2018-08-25T09:35:11.546Z,152.20
2018-08-25T09:37:38.725Z,152.83
2018-08-25T09:40:05.962Z,145.13
2018-08-25T09:42:33.142Z,147.83
2018-08-25T09:45:00.313Z,153.13
2018-08-25T09:47:27.454Z,147.00
2018-08-25T09:49:54.611Z,171.27
2018-08-25T09:52:21.758Z,150.73
2018-08-25T09:54:48.929Z,141.77
2018-08-25T09:57:16.069Z,133.37
2018-08-25T09:59:43.218Z,135.20
2018-08-25T10:02:10.385Z,141.80
2018-08-25T10:04:37.554Z,139.83
2018-08-25T10:07:05.189Z,147.73
2018-08-25T10:09:32.368Z,130.67
2018-08-25T10:11:59.560Z,133.80
2018-08-25T10:14:26.710Z,134.13
2018-08-25T10:16:53.988Z,127.63
2018-08-25T10:19:21.097Z,126.37
2018-08-25T10:21:48.246Z,127.60
2018-08-25T10:24:15.430Z,131.83
2018-08-25T10:26:42.727Z,134.77
2018-08-25T10:29:09.921Z,128.90
2018-08-25T10:31:37.083Z,144.33
2018-08-25T10:34:04.283Z,134.53
2018-08-25T10:36:32.170Z,135.33
2018-08-25T10:38:59.466Z,136.90
2018-08-25T10:41:26.754Z,147.23
2018-08-25T10:43:54.058Z,148.50
2018-08-25T10:46:21.213Z,143.30
2018-08-25T10:48:48.559Z,135.30
2018-08-25T10:51:15.727Z,135.70
2018-08-25T10:53:43.027Z,132.87
2018-08-25T10:56:10.287Z,132.13
2018-08-25T10:58:37.549Z,141.53
2018-08-25T11:01:05.281Z,133.80
2018-08-25T11:03:32.338Z,148.43
2018-08-25T11:05:59.630Z,130.27
2018-08-25T11:08:26.775Z,133.70
2018-08-25T11:10:54.037Z,126.87
2018-08-25T11:13:21.178Z,124.53
2018-08-25T11:15:48.707Z,136.50
2018-08-25T11:18:15.858Z,129.43
2018-08-25T11:20:43.009Z,124.67
2018-08-25T11:23:10.141Z,126.87
2018-08-25T11:25:37.430Z,135.23
2018-08-25T11:28:04.629Z,124.23
2018-08-25T11:30:31.902Z,131.07
2018-08-25T11:32:59.191Z,125.13
2018-08-25T11:35:26.407Z,129.37
2018-08-25T11:37:53.758Z,119.37
2018-08-25T11:40:20.803Z,125.50
2018-08-25T11:42:48.020Z,127.00
2018-08-25T11:45:15.187Z,112.43
2018-08-25T11:47:42.443Z,119.17
2018-08-25T11:50:09.643Z,119.73
2018-08-25T11:52:36.953Z,121.10
2018-08-25T11:55:04.237Z,121.37
2018-08-25T11:57:31.394Z,114.83
2018-08-25T11:59:58.578Z,128.57
2018-08-25T12:02:27.801Z,118.53
2018-08-25T12:04:53.009Z,119.47
2018-08-25T12:07:20.179Z,114.93
2018-08-25T12:09:47.381Z,113.53
2018-08-25T12:12:14.530Z,122.77
2018-08-25T12:14:42.175Z,120.33
2018-08-25T12:17:09.397Z,120.13
2018-08-25T12:19:36.690Z,120.47
2018-08-25T12:22:03.962Z,118.93
2018-08-25T12:24:31.301Z,132.27
2018-08-25T12:26:59.946Z,120.87
2018-08-25T12:29:27.310Z,130.53
2018-08-25T12:31:54.639Z,123.50
2018-08-25T12:34:21.974Z,120.77
2018-08-25T12:36:49.219Z,135.70
2018-08-25T12:39:16.508Z,138.33
2018-08-25T12:41:43.873Z,139.57
2018-08-25T12:44:11.106Z,136.67
2018-08-25T12:46:38.429Z,137.90
2018-08-25T12:49:05.930Z,128.03
2018-08-25T12:51:33.200Z,131.83
2018-08-25T12:54:00.505Z,134.07
2018-08-25T12:56:27.818Z,140.90
2018-08-25T12:58:55.031Z,148.90
2018-08-25T13:01:22.186Z,137.57
2018-08-25T13:03:49.510Z,130.63
2018-08-25T13:06:16.733Z,136.97
2018-08-25T13:08:44.034Z,131.13
2018-08-25T13:11:11.397Z,136.10
2018-08-25T13:13:38.651Z,138.60
2018-08-25T13:16:06.090Z,140.63
2018-08-25T13:18:33.354Z,138.93
2018-08-25T13:21:00.643Z,145.40
2018-08-25T13:23:28.000Z,165.20
2018-08-25T13:25:55.182Z,145.73
2018-08-25T13:28:22.583Z,170.00
2018-08-25T13:30:49.917Z,150.70
2018-08-25T13:33:17.112Z,173.97
2018-08-25T13:35:44.454Z,156.80
2018-08-25T13:38:11.715Z,153.43
2018-08-25T13:40:38.923Z,179.90
2018-08-25T13:43:06.213Z,164.03
2018-08-25T13:45:33.518Z,169.83
2018-08-25T13:48:00.793Z,170.93
2018-08-25T13:50:28.149Z,165.07
2018-08-25T13:52:55.421Z,168.10
2018-08-25T13:55:22.692Z,167.77
2018-08-25T13:57:49.928Z,160.27
2018-08-25T14:00:17.224Z,163.03
2018-08-25T14:02:44.500Z,157.97
2018-08-25T14:05:11.755Z,154.60
2018-08-25T14:07:39.013Z,160.27
2018-08-25T14:10:06.466Z,176.50
2018-08-25T14:12:33.718Z,170.47
2018-08-25T14:15:01.070Z,158.57
2018-08-25T14:17:28.366Z,161.50
2018-08-25T14:19:55.679Z,157.40
2018-08-25T14:22:22.999Z,177.03
2018-08-25T14:24:50.169Z,152.87
2018-08-25T14:27:17.335Z,165.53
2018-08-25T14:29:44.567Z,144.43
2018-08-25T14:32:11.832Z,135.87
2018-08-25T14:34:39.040Z,135.23
2018-08-25T14:37:06.314Z,130.53
2018-08-25T14:39:33.731Z,142.57
2018-08-25T14:42:00.903Z,136.50
2018-08-25T14:44:28.160Z,130.90
2018-08-25T14:46:55.378Z,123.03
2018-08-25T14:49:22.609Z,119.67
2018-08-25T14:51:49.893Z,120.20
2018-08-25T14:54:17.247Z,121.33
2018-08-25T14:56:44.711Z,122.43
2018-08-25T14:59:12.075Z,124.03
2018-08-25T15:01:39.338Z,134.57
2018-08-25T15:04:06.659Z,129.20
2018-08-25T15:06:33.959Z,144.93
2018-08-25T15:09:01.229Z,141.13
2018-08-25T15:11:28.473Z,154.57
2018-08-25T15:13:55.640Z,158.20
2018-08-25T15:16:22.773Z,148.07
2018-08-25T15:18:49.957Z,142.47
2018-08-25T15:21:17.061Z,163.23
2018-08-25T15:23:44.221Z,162.67
2018-08-25T15:26:11.406Z,170.97
2018-08-25T15:28:38.556Z,152.73
2018-08-25T15:31:05.859Z,160.50
2018-08-25T15:33:32.854Z,151.30
2018-08-25T15:35:59.999Z,160.30
2018-08-25T15:38:27.261Z,156.13
2018-08-25T15:40:54.406Z,193.17
2018-08-25T15:43:21.539Z,178.53
2018-08-25T15:45:48.678Z,173.73
2018-08-25T15:48:15.808Z,159.67
2018-08-25T15:50:42.982Z,169.33
2018-08-25T15:53:10.147Z,159.90
2018-08-25T15:55:37.289Z,145.40
2018-08-25T15:58:04.607Z,164.60
2018-08-25T16:00:31.657Z,152.63
2018-08-25T16:02:58.838Z,152.57
2018-08-25T16:05:25.981Z,164.37
2018-08-25T16:07:53.150Z,170.67
2018-08-25T16:10:20.339Z,168.43
2018-08-25T16:12:47.495Z,152.63
2018-08-25T16:15:14.634Z,146.67
2018-08-25T16:17:41.753Z,138.63
2018-08-25T16:20:08.943Z,154.83
2018-08-25T16:22:36.053Z,142.13
2018-08-25T16:25:03.231Z,141.07
2018-08-25T16:27:30.366Z,153.57
2018-08-25T16:29:57.510Z,149.63
2018-08-25T16:32:24.685Z,130.43
2018-08-25T16:34:51.852Z,134.77
2018-08-25T16:37:18.986Z,140.23
2018-08-25T16:39:46.136Z,154.23
2018-08-25T16:42:13.298Z,129.33
2018-08-25T16:44:40.903Z,137.77
2018-08-25T16:47:08.047Z,129.80
2018-08-25T16:49:35.214Z,146.77
2018-08-25T16:52:02.431Z,135.67
2018-08-25T16:54:29.564Z,138.67
2018-08-25T16:56:56.727Z,133.47
2018-08-25T16:59:23.866Z,136.93
2018-08-25T17:01:50.994Z,135.43
2018-08-25T17:04:18.145Z,147.73
2018-08-25T17:06:45.293Z,148.43
2018-08-25T17:09:12.414Z,134.17
2018-08-25T17:11:39.762Z,147.73
2018-08-25T17:14:06.889Z,129.23
2018-08-25T17:16:34.027Z,132.33
2018-08-25T17:19:01.174Z,121.33
2018-08-25T17:21:28.302Z,123.87
2018-08-25T17:23:55.434Z,128.17
2018-08-25T17:26:22.602Z,129.80
2018-08-25T17:28:49.754Z,137.97
2018-08-25T17:31:16.970Z,131.93
2018-08-25T17:33:44.106Z,135.10
2018-08-25T17:36:11.523Z,150.60
2018-08-25T17:38:38.708Z,153.13
2018-08-25T17:41:05.825Z,135.80
2018-08-25T17:43:32.983Z,137.23
2018-08-25T17:46:00.171Z,137.73
2018-08-25T17:48:27.294Z,140.10
2018-08-25T17:50:54.444Z,151.10
2018-08-25T17:53:21.585Z,130.70
2018-08-25T17:55:48.747Z,146.23
2018-08-25T17:58:15.903Z,135.73
2018-08-25T18:00:43.110Z,131.70
2018-08-25T18:03:10.633Z,131.73
2018-08-25T18:05:37.773Z,136.20
2018-08-25T18:08:04.938Z,130.43
2018-08-25T18:10:32.078Z,133.77
2018-08-25T18:12:59.258Z,125.93
2018-08-25T18:15:26.386Z,120.03
2018-08-25T18:17:53.550Z,115.20
2018-08-25T18:20:20.716Z,126.87
2018-08-25T18:22:47.870Z,118.57
2018-08-25T18:25:15.007Z,127.40
2018-08-25T18:27:42.172Z,112.77
2018-08-25T18:30:09.352Z,110.67
2018-08-25T18:32:36.486Z,116.67
2018-08-25T18:35:03.670Z,106.97
2018-08-25T18:37:30.815Z,116.07
2018-08-25T18:39:57.970Z,115.30
2018-08-25T18:42:25.103Z,113.97
2018-08-25T18:44:52.244Z,110.77
2018-08-25T18:47:19.399Z,108.30
2018-08-25T18:49:46.538Z,108.67
2018-08-25T18:52:13.925Z,109.87
2018-08-25T18:54:41.357Z,112.00
2018-08-25T18:57:08.455Z,108.67
2018-08-25T18:59:35.590Z,110.27
2018-08-25T19:02:02.842Z,108.53
2018-08-25T19:04:29.910Z,111.37
2018-08-25T19:06:57.061Z,110.67
2018-08-25T19:09:24.197Z,106.67
2018-08-25T19:11:51.338Z,109.33
2018-08-25T19:14:18.592Z,111.27
2018-08-25T19:16:45.683Z,113.37
2018-08-25T19:19:12.890Z,117.37
2018-08-25T19:21:40.030Z,108.53
2018-08-25T19:24:07.576Z,107.20
2018-08-25T19:26:34.678Z,116.80
2018-08-25T19:29:01.874Z,116.73
2018-08-25T19:31:29.027Z,107.20
2018-08-25T19:33:56.166Z,114.07
2018-08-25T19:36:23.317Z,108.33
2018-08-25T19:38:50.447Z,109.87
2018-08-25T19:41:17.689Z,107.57
2018-08-25T19:43:44.794Z,105.63
2018-08-25T19:46:12.154Z,114.63
2018-08-25T19:48:39.330Z,107.77
2018-08-25T19:51:06.518Z,105.23
2018-08-25T19:53:33.667Z,104.50
2018-08-25T19:56:00.862Z,110.37
2018-08-25T19:58:28.006Z,105.80
2018-08-25T20:00:55.143Z,112.93
2018-08-25T20:03:22.278Z,113.57
2018-08-25T20:05:49.482Z,105.67
2018-08-25T20:08:16.599Z,102.73
2018-08-25T20:10:43.758Z,99.50
2018-08-25T20:13:10.906Z,107.57
2018-08-25T20:15:38.064Z,103.47
2018-08-25T20:18:05.219Z,110.57
2018-08-25T20:20:32.426Z,101.53
2018-08-25T20:22:59.526Z,103.43
2018-08-25T20:25:26.897Z,110.27
2018-08-25T20:27:54.033Z,103.97
2018-08-25T20:30:21.393Z,99.30
2018-08-25T20:32:48.549Z,104.83
2018-08-25T20:35:15.874Z,110.83
2018-08-25T20:37:43.134Z,104.43
2018-08-25T20:40:10.278Z,108.00
2018-08-25T20:42:37.422Z,109.43
2018-08-25T20:45:04.834Z,109.23
2018-08-25T20:47:31.975Z,102.50
2018-08-25T20:49:59.118Z,99.27
2018-08-25T20:52:26.466Z,102.97
2018-08-25T20:54:53.606Z,104.40
2018-08-25T20:57:20.846Z,101.33
2018-08-25T20:59:48.090Z,104.37
2018-08-25T21:02:15.242Z,107.33
2018-08-25T21:04:42.374Z,110.63
2018-08-25T21:07:09.522Z,107.80
2018-08-25T21:09:36.646Z,107.47
2018-08-25T21:12:03.810Z,110.17
2018-08-25T21:14:30.983Z,106.67
2018-08-25T21:16:58.135Z,106.40
2018-08-25T21:19:25.261Z,100.67
2018-08-25T21:21:52.410Z,106.73
2018-08-25T21:24:19.574Z,99.43
2018-08-25T21:26:46.710Z,102.23
2018-08-25T21:29:13.843Z,104.63
2018-08-25T21:31:40.982Z,104.60
2018-08-25T21:34:08.134Z,105.60
2018-08-25T21:36:35.290Z,98.63
2018-08-25T21:39:02.510Z,103.00
2018-08-25T21:41:29.738Z,100.93
2018-08-25T21:43:56.857Z,104.83
2018-08-25T21:46:23.988Z,105.20
2018-08-25T21:48:51.128Z,100.77
2018-08-25T21:51:18.258Z,97.10
2018-08-25T21:53:45.502Z,100.67
2018-08-25T21:56:12.637Z,104.83
2018-08-25T21:58:39.813Z,98.17
2018-08-25T22:01:07.006Z,98.57
2018-08-25T22:03:34.122Z,96.03
2018-08-25T22:06:01.268Z,98.77
2018-08-25T22:08:28.413Z,98.57
2018-08-25T22:10:55.565Z,95.20
2018-08-25T22:13:22.701Z,97.97
2018-08-25T22:15:49.929Z,97.27
2018-08-25T22:18:17.614Z,96.77
2018-08-25T22:20:44.759Z,104.83
2018-08-25T22:23:11.909Z,98.47
2018-08-25T22:25:39.063Z,101.37
2018-08-25T22:28:06.190Z,99.97
2018-08-25T22:30:33.314Z,101.57
2018-08-25T22:33:00.453Z,106.50
2018-08-25T22:35:28.074Z,100.17
2018-08-25T22:37:55.214Z,99.70
2018-08-25T22:40:22.424Z,102.57
2018-08-25T22:42:49.830Z,100.07
2018-08-25T22:45:16.986Z,102.43
2018-08-25T22:47:44.117Z,107.30
2018-08-25T22:50:11.266Z,100.47
2018-08-25T22:52:44.241Z,105.40
2018-08-25T22:55:11.389Z,98.40
2018-08-25T22:57:38.535Z,99.33
2018-08-25T23:00:05.829Z,98.87
2018-08-25T23:02:33.077Z,104.87
2018-08-25T23:05:02.270Z,98.87
2018-08-25T23:07:29.523Z,99.73
2018-08-25T23:09:56.671Z,98.80
2018-08-25T23:12:23.810Z,96.60
2018-08-25T23:14:51.000Z,96.07
2018-08-25T23:17:18.557Z,97.20
2018-08-25T23:19:45.678Z,99.33
2018-08-25T23:22:12.815Z,97.30
2018-08-25T23:24:39.958Z,99.77
2018-08-25T23:27:07.089Z,99.00
2018-08-25T23:29:34.218Z,97.40
2018-08-25T23:32:01.362Z,97.17
2018-08-25T23:34:28.507Z,100.23
2018-08-25T23:36:55.649Z,96.30
2018-08-25T23:39:22.909Z,95.97
2018-08-25T23:41:50.114Z,97.37
2018-08-25T23:44:17.250Z,95.37
2018-08-25T23:46:44.385Z,97.33
2018-08-25T23:49:11.514Z,95.03
2018-08-25T23:51:38.652Z,96.80
2018-08-25T23:54:05.926Z,95.53
2018-08-25T23:56:33.169Z,95.27
2018-08-25T23:59:00.322Z,99.97
